Аэропорт: Могилёв. Могилёв

ICAO: UMOO

METAR:
2018/07/16 13:17
UMOO 161317Z 05004MPS 5000 -TSRA BR BKN014CB OVC/// 29/18 Q1007 R13/290068 NOSIG
METAR:
2016/01/23 06:00
TAF UMOO 230500Z 2306/2315 28005MPS 4000 -SN BR OVC008 
      TEMPO 2306/2315 1200 SN BR BKN005